Time;durP1;ratioP1;P1;durP2;ratioP2;P2;SDS_P1;SDS_P2;PMS_P1;PMS_P2;Temp;Humidity;BMP_temperature;BMP_pressure;BME280_temperature;BME280_humidity;BME280_pressure;Samples;Min_cycle;Max_cycle;Signal;HPM_P1;HPM_P2
2024/04/06 00:00:56;;;;;;;11.98;8.82;;;;;;;;;;5107103;28;20039;-41
2024/04/06 00:03:23;;;;;;;12.55;9.02;;;;;;;;;;5106874;28;20036;-46
2024/04/06 00:05:49;;;;;;;12.20;8.75;;;;;;;;;;5107089;28;20083;-48
2024/04/06 00:08:16;;;;;;;11.95;8.77;;;;;;;;;;5106955;28;20084;-42
2024/04/06 00:10:43;;;;;;;10.80;8.27;;;;;;;;;;5105622;28;20079;-48
2024/04/06 00:13:09;;;;;;;14.32;8.85;;;;;;;;;;5106858;28;20024;-41
2024/04/06 00:15:36;;;;;;;11.65;8.55;;;;;;;;;;5106614;28;20062;-43
2024/04/06 00:18:02;;;;;;;12.25;8.90;;;;;;;;;;5103581;28;20020;-46
2024/04/06 00:20:30;;;;;;;14.18;9.23;;;;;;;;;;5090607;28;20060;-39
2024/04/06 00:22:56;;;;;;;12.43;9.48;;;;;;;;;;5086382;28;20313;-48
2024/04/06 00:25:23;;;;;;;12.18;9.50;;;;;;;;;;5086114;28;20118;-52
2024/04/06 00:27:50;;;;;;;11.13;9.63;;;;;;;;;;5086428;28;20021;-49
2024/04/06 00:30:17;;;;;;;13.85;10.00;;;;;;;;;;5088978;28;20345;-49
2024/04/06 00:32:43;;;;;;;13.48;10.30;;;;;;;;;;5094064;28;20031;-48
2024/04/06 00:35:10;;;;;;;12.38;10.35;;;;;;;;;;5086522;28;20029;-49
2024/04/06 00:37:36;;;;;;;11.23;10.05;;;;;;;;;;5086035;28;20043;-49
2024/04/06 00:40:03;;;;;;;14.70;10.13;;;;;;;;;;5086152;28;20019;-51
2024/04/06 00:42:30;;;;;;;10.82;9.73;;;;;;;;;;5091419;28;20070;-49
2024/04/06 00:44:57;;;;;;;14.27;10.40;;;;;;;;;;5093830;28;20072;-48
2024/04/06 00:47:23;;;;;;;14.48;10.57;;;;;;;;;;5096218;28;20063;-48
2024/04/06 00:49:50;;;;;;;13.52;9.25;;;;;;;;;;5089910;28;20020;-44
2024/04/06 00:52:16;;;;;;;12.30;9.68;;;;;;;;;;5099898;28;20031;-40
2024/04/06 00:54:43;;;;;;;11.15;9.38;;;;;;;;;;5106244;28;20081;-47
2024/04/06 00:57:09;;;;;;;11.32;9.60;;;;;;;;;;5106332;28;20083;-49
2024/04/06 00:59:37;;;;;;;142.63;131.55;;;;;;;;;;5106031;28;20080;-45
2024/04/06 01:02:04;;;;;;;28.42;25.77;;;;;;;;;;5106445;28;20024;-53
2024/04/06 01:04:30;;;;;;;21.83;19.83;;;;;;;;;;5103131;28;20028;-50
2024/04/06 01:06:57;;;;;;;16.08;14.13;;;;;;;;;;5094918;28;20032;-48
2024/04/06 01:09:24;;;;;;;15.52;13.63;;;;;;;;;;5088104;28;20016;-51
2024/04/06 01:11:51;;;;;;;13.95;12.15;;;;;;;;;;5097201;28;20354;-49
2024/04/06 01:14:18;;;;;;;15.20;11.82;;;;;;;;;;5085643;28;20032;-47
2024/04/06 01:16:44;;;;;;;14.18;11.40;;;;;;;;;;5086003;28;20087;-57
2024/04/06 01:19:11;;;;;;;19.00;12.48;;;;;;;;;;5085366;28;20031;-45
2024/04/06 01:21:37;;;;;;;26.60;15.93;;;;;;;;;;5090195;28;20032;-38
2024/04/06 01:24:23;;;;;;;15.40;11.63;;;;;;;;;;5104690;28;20047;-53
2024/04/06 01:26:49;;;;;;;14.20;11.23;;;;;;;;;;5105933;28;20032;-41
2024/04/06 01:29:16;;;;;;;15.65;10.18;;;;;;;;;;5105741;28;20012;-44
2024/04/06 01:31:43;;;;;;;15.68;9.82;;;;;;;;;;5105681;28;20060;-49
2024/04/06 01:34:10;;;;;;;20.10;10.55;;;;;;;;;;5105573;28;20051;-48
2024/04/06 01:36:42;;;;;;;20.33;10.32;;;;;;;;;;5105648;28;20079;-47
2024/04/06 01:39:08;;;;;;;;;;;;;;;;;;5105515;28;20238;-39
2024/04/06 01:41:38;;;;;;;24.08;9.63;;;;;;;;;;5105405;28;19904;-41
2024/04/06 01:44:05;;;;;;;20.23;9.70;;;;;;;;;;5105174;28;20027;-46
2024/04/06 01:46:32;;;;;;;23.83;12.15;;;;;;;;;;5105075;28;20027;-48
2024/04/06 01:48:59;;;;;;;16.52;10.88;;;;;;;;;;5105144;28;20315;-44
2024/04/06 01:51:26;;;;;;;25.27;11.45;;;;;;;;;;5104946;28;20044;-55
2024/04/06 01:53:52;;;;;;;24.85;11.80;;;;;;;;;;5095652;28;20079;-51
2024/04/06 01:56:19;;;;;;;31.48;11.38;;;;;;;;;;5084699;28;20036;-47
2024/04/06 01:58:46;;;;;;;30.58;11.00;;;;;;;;;;5084384;28;20026;-41
2024/04/06 02:01:13;;;;;;;23.08;11.68;;;;;;;;;;5084327;28;20062;-43
2024/04/06 02:03:39;;;;;;;35.28;21.80;;;;;;;;;;5084398;28;20422;-46
2024/04/06 02:06:08;;;;;;;34.88;17.58;;;;;;;;;;5095758;28;20062;-41
2024/04/06 02:08:35;;;;;;;30.45;14.85;;;;;;;;;;5084220;28;20330;-41
2024/04/06 02:11:02;;;;;;;23.55;12.45;;;;;;;;;;5084489;28;20048;-39
2024/04/06 02:13:29;;;;;;;14.73;10.32;;;;;;;;;;5084291;28;20232;-46
2024/04/06 02:15:55;;;;;;;18.83;11.45;;;;;;;;;;5084298;28;20327;-41
2024/04/06 02:18:22;;;;;;;18.27;11.30;;;;;;;;;;5084336;28;20031;-44
2024/04/06 02:20:48;;;;;;;16.73;10.85;;;;;;;;;;5084351;28;20024;-41
2024/04/06 02:23:15;;;;;;;13.50;10.68;;;;;;;;;;5084162;28;20265;-47
2024/04/06 02:25:42;;;;;;;13.95;9.70;;;;;;;;;;5087537;28;20046;-40
2024/04/06 02:28:08;;;;;;;12.73;9.57;;;;;;;;;;5095339;28;20016;-44
2024/04/06 02:30:37;;;;;;;17.08;9.68;;;;;;;;;;5097438;28;20049;-43
2024/04/06 02:33:05;;;;;;;12.18;9.45;;;;;;;;;;5092175;28;20028;-44
2024/04/06 02:35:31;;;;;;;13.95;9.23;;;;;;;;;;5084012;28;20036;-47
2024/04/06 02:37:58;;;;;;;10.30;8.90;;;;;;;;;;5086800;28;20028;-48
2024/04/06 02:40:25;;;;;;;9.48;8.20;;;;;;;;;;5094967;28;20039;-42
2024/04/06 02:42:51;;;;;;;9.95;8.95;;;;;;;;;;5084138;28;20035;-40
2024/04/06 02:45:18;;;;;;;11.43;8.90;;;;;;;;;;5083747;28;20024;-42
2024/04/06 02:47:45;;;;;;;12.30;9.40;;;;;;;;;;5083812;28;20024;-42
2024/04/06 02:50:11;;;;;;;14.75;9.00;;;;;;;;;;5083719;28;20016;-46
2024/04/06 02:52:38;;;;;;;13.73;8.85;;;;;;;;;;5083816;28;20021;-43
2024/04/06 02:55:06;;;;;;;11.85;8.95;;;;;;;;;;5083681;28;20080;-46
2024/04/06 02:57:32;;;;;;;11.98;8.68;;;;;;;;;;5086337;28;20084;-40
2024/04/06 02:59:59;;;;;;;10.35;8.60;;;;;;;;;;5092833;28;20016;-44
2024/04/06 03:02:25;;;;;;;10.80;8.82;;;;;;;;;;5084129;28;20209;-45
2024/04/06 03:04:52;;;;;;;12.50;8.93;;;;;;;;;;5082564;28;20262;-45
2024/04/06 03:07:19;;;;;;;11.27;8.75;;;;;;;;;;5084208;28;20021;-39
2024/04/06 03:09:46;;;;;;;11.85;8.60;;;;;;;;;;5083595;28;20111;-43
2024/04/06 03:12:14;;;;;;;11.30;8.70;;;;;;;;;;5084149;28;20049;-41
2024/04/06 03:14:40;;;;;;;12.48;9.07;;;;;;;;;;5086432;28;20016;-39
2024/04/06 03:17:07;;;;;;;11.75;8.60;;;;;;;;;;5088087;28;20271;-44
2024/04/06 03:19:33;;;;;;;9.88;8.80;;;;;;;;;;5090609;28;20189;-40
2024/04/06 03:22:00;;;;;;;10.85;8.77;;;;;;;;;;5096967;28;20190;-40
2024/04/06 03:24:27;;;;;;;12.77;9.13;;;;;;;;;;5087488;28;20023;-46
2024/04/06 03:26:53;;;;;;;11.15;8.57;;;;;;;;;;5087920;28;20216;-41
2024/04/06 03:29:20;;;;;;;12.88;8.90;;;;;;;;;;5095278;28;20024;-47
2024/04/06 03:31:47;;;;;;;9.10;8.20;;;;;;;;;;5092874;28;20052;-46
2024/04/06 03:34:14;;;;;;;9.43;8.43;;;;;;;;;;5096387;28;20057;-47
2024/04/06 03:36:40;;;;;;;11.80;9.07;;;;;;;;;;5087641;28;20096;-46
2024/04/06 03:39:07;;;;;;;11.95;9.02;;;;;;;;;;5091909;28;20017;-50
2024/04/06 03:41:34;;;;;;;12.65;9.50;;;;;;;;;;5094033;28;20270;-39
2024/04/06 03:44:02;;;;;;;12.75;9.02;;;;;;;;;;5087246;28;20069;-49
2024/04/06 03:46:29;;;;;;;10.73;8.38;;;;;;;;;;5087117;28;20201;-45
2024/04/06 03:48:56;;;;;;;11.50;8.15;;;;;;;;;;5087260;28;20127;-46
2024/04/06 03:51:26;;;;;;;8.30;7.20;;;;;;;;;;5087443;28;20047;-41
2024/04/06 03:53:52;;;;;;;9.02;7.10;;;;;;;;;;5087184;28;20020;-43
2024/04/06 03:56:19;;;;;;;8.45;6.20;;;;;;;;;;5087234;28;20029;-50
2024/04/06 03:58:46;;;;;;;7.38;6.45;;;;;;;;;;5087189;28;20024;-46
2024/04/06 04:01:12;;;;;;;8.35;6.65;;;;;;;;;;5086868;28;20024;-46
2024/04/06 04:03:39;;;;;;;9.00;6.78;;;;;;;;;;5086907;28;20016;-41
2024/04/06 04:06:06;;;;;;;10.57;6.53;;;;;;;;;;5097198;28;20031;-46
2024/04/06 04:08:33;;;;;;;9.50;5.95;;;;;;;;;;5087220;28;20016;-49
2024/04/06 04:11:00;;;;;;;7.88;6.43;;;;;;;;;;5086849;28;20032;-48
2024/04/06 04:13:26;;;;;;;7.68;6.30;;;;;;;;;;5086963;28;20043;-40
2024/04/06 04:15:54;;;;;;;11.27;6.18;;;;;;;;;;5086815;28;20091;-45
2024/04/06 04:18:20;;;;;;;8.38;5.85;;;;;;;;;;5086582;28;20033;-46
2024/04/06 04:20:47;;;;;;;8.50;6.10;;;;;;;;;;5086379;28;20024;-40
2024/04/06 04:23:13;;;;;;;6.15;5.55;;;;;;;;;;5086564;28;20070;-45
2024/04/06 04:25:40;;;;;;;7.90;6.00;;;;;;;;;;5086344;28;20055;-46
2024/04/06 04:28:07;;;;;;;9.27;5.53;;;;;;;;;;5086505;28;20023;-42
2024/04/06 04:30:33;;;;;;;7.45;5.82;;;;;;;;;;5086279;28;20120;-49
2024/04/06 04:33:00;;;;;;;6.95;5.50;;;;;;;;;;5086263;28;20032;-41
2024/04/06 04:35:27;;;;;;;7.15;6.05;;;;;;;;;;5086273;28;20013;-45
2024/04/06 04:37:54;;;;;;;7.55;5.90;;;;;;;;;;5086181;28;20138;-39
2024/04/06 04:40:20;;;;;;;9.93;6.07;;;;;;;;;;5086079;28;20040;-42
2024/04/06 04:42:47;;;;;;;8.05;5.88;;;;;;;;;;5086127;28;20061;-43
2024/04/06 04:45:14;;;;;;;6.70;5.90;;;;;;;;;;5090399;28;20021;-40
2024/04/06 04:47:41;;;;;;;8.07;5.72;;;;;;;;;;5091915;28;20016;-45
2024/04/06 04:50:11;;;;;;;9.57;6.20;;;;;;;;;;5086063;28;20020;-50
2024/04/06 04:52:38;;;;;;;7.88;5.55;;;;;;;;;;5086182;28;20205;-45
2024/04/06 04:55:05;;;;;;;9.20;6.03;;;;;;;;;;5085799;28;20082;-44
2024/04/06 04:57:32;;;;;;;8.60;5.88;;;;;;;;;;5086356;28;20024;-45
2024/04/06 04:59:58;;;;;;;8.77;6.15;;;;;;;;;;5085915;28;20012;-39
2024/04/06 05:02:25;;;;;;;7.75;5.65;;;;;;;;;;5086162;28;20061;-46
2024/04/06 05:04:52;;;;;;;8.95;6.70;;;;;;;;;;5085967;28;20013;-41
2024/04/06 05:07:22;;;;;;;10.25;7.60;;;;;;;;;;5086127;28;20025;-48
2024/04/06 05:09:49;;;;;;;12.98;8.43;;;;;;;;;;5085630;28;20020;-44
2024/04/06 05:12:15;;;;;;;13.95;9.18;;;;;;;;;;5086000;28;20362;-43
2024/04/06 05:14:42;;;;;;;12.52;8.32;;;;;;;;;;5085639;28;20021;-40
2024/04/06 05:17:08;;;;;;;9.98;7.53;;;;;;;;;;5085654;28;20308;-48
2024/04/06 05:19:35;;;;;;;10.25;7.82;;;;;;;;;;5095513;28;20317;-46
2024/04/06 05:22:02;;;;;;;10.95;8.27;;;;;;;;;;5096945;28;20181;-42
2024/04/06 05:24:29;;;;;;;13.50;8.88;;;;;;;;;;5104721;28;20304;-49
2024/04/06 05:26:58;;;;;;;10.13;7.90;;;;;;;;;;5096701;28;20043;-49
2024/04/06 05:29:25;;;;;;;10.82;7.20;;;;;;;;;;5085101;28;20016;-49
2024/04/06 05:31:56;;;;;;;22.48;6.93;;;;;;;;;;5087527;28;20020;-41
2024/04/06 05:34:23;;;;;;;10.38;6.03;;;;;;;;;;5099156;28;20009;-46
2024/04/06 05:36:50;;;;;;;11.05;6.38;;;;;;;;;;5094502;28;20031;-42
2024/04/06 05:39:17;;;;;;;17.38;8.25;;;;;;;;;;5095682;28;20039;-46
2024/04/06 05:41:43;;;;;;;12.77;8.95;;;;;;;;;;5094139;28;20020;-44
2024/04/06 05:44:10;;;;;;;14.02;8.90;;;;;;;;;;5094515;28;20316;-42
2024/04/06 05:46:37;;;;;;;18.95;9.30;;;;;;;;;;5095748;28;20093;-44
2024/04/06 05:49:05;;;;;;;18.05;10.63;;;;;;;;;;5093727;28;20020;-47
2024/04/06 05:51:35;;;;;;;22.02;10.02;;;;;;;;;;5094428;28;20020;-44
2024/04/06 05:54:01;;;;;;;23.63;10.95;;;;;;;;;;5095356;28;20308;-46
2024/04/06 05:56:28;;;;;;;19.08;10.45;;;;;;;;;;5094374;28;20372;-44
2024/04/06 05:58:55;;;;;;;17.70;10.82;;;;;;;;;;5093615;28;20054;-41
2024/04/06 06:01:25;;;;;;;18.70;10.88;;;;;;;;;;5095385;28;20047;-40
2024/04/06 06:03:51;;;;;;;18.40;11.27;;;;;;;;;;5096579;28;20031;-48
2024/04/06 06:06:18;;;;;;;16.95;11.50;;;;;;;;;;5096001;28;20100;-46
2024/04/06 06:08:44;;;;;;;18.63;11.45;;;;;;;;;;5093646;28;20013;-46
2024/04/06 06:11:11;;;;;;;18.55;12.60;;;;;;;;;;5094107;28;20020;-44
2024/04/06 06:13:38;;;;;;;17.80;12.43;;;;;;;;;;5095081;28;20212;-45
2024/04/06 06:16:04;;;;;;;23.92;13.02;;;;;;;;;;5093450;28;20107;-44
2024/04/06 06:18:31;;;;;;;22.15;12.57;;;;;;;;;;5093823;28;20027;-46
2024/04/06 06:20:57;;;;;;;31.00;13.68;;;;;;;;;;5095053;28;20028;-43
2024/04/06 06:23:24;;;;;;;28.65;14.63;;;;;;;;;;5093994;28;20104;-38
2024/04/06 06:25:51;;;;;;;34.42;14.07;;;;;;;;;;5103798;28;20034;-45
2024/04/06 06:28:17;;;;;;;31.45;14.48;;;;;;;;;;5102113;28;20024;-44
2024/04/06 06:30:44;;;;;;;27.35;14.35;;;;;;;;;;5104189;28;20063;-41
2024/04/06 06:33:10;;;;;;;24.50;15.23;;;;;;;;;;5104451;28;20083;-44
2024/04/06 06:35:37;;;;;;;21.15;14.48;;;;;;;;;;5104365;28;20035;-53
2024/04/06 06:38:05;;;;;;;20.20;14.57;;;;;;;;;;5104146;28;20051;-46
2024/04/06 06:40:31;;;;;;;17.40;13.07;;;;;;;;;;5104204;28;20185;-41
2024/04/06 06:42:58;;;;;;;20.10;11.68;;;;;;;;;;5100056;28;20278;-43
2024/04/06 06:45:25;;;;;;;16.48;10.93;;;;;;;;;;5095003;28;20334;-44
2024/04/06 06:47:51;;;;;;;14.32;9.35;;;;;;;;;;5103785;28;20020;-46
2024/04/06 06:50:18;;;;;;;16.73;9.02;;;;;;;;;;5103801;28;20026;-44
2024/04/06 06:52:44;;;;;;;15.05;8.85;;;;;;;;;;5103997;28;20022;-47
2024/04/06 06:55:11;;;;;;;10.68;8.27;;;;;;;;;;5104080;28;20215;-44
2024/04/06 06:57:37;;;;;;;17.13;7.85;;;;;;;;;;5104055;28;20048;-48
2024/04/06 07:00:04;;;;;;;12.88;7.43;;;;;;;;;;5104195;28;20016;-41
2024/04/06 07:02:31;;;;;;;10.15;6.88;;;;;;;;;;5104481;28;20083;-46
2024/04/06 07:04:57;;;;;;;11.15;7.80;;;;;;;;;;5104002;28;20027;-45
2024/04/06 07:07:24;;;;;;;12.95;7.53;;;;;;;;;;5104496;28;20015;-43
2024/04/06 07:09:51;;;;;;;13.98;7.18;;;;;;;;;;5103877;28;20028;-42
2024/04/06 07:12:17;;;;;;;15.82;7.28;;;;;;;;;;5104397;28;20020;-49
2024/04/06 07:14:44;;;;;;;12.32;6.72;;;;;;;;;;5104101;28;20051;-45
2024/04/06 07:17:10;;;;;;;15.60;6.82;;;;;;;;;;5104163;28;20235;-47
2024/04/06 07:19:37;;;;;;;10.00;6.22;;;;;;;;;;5103725;28;20224;-44
2024/04/06 07:22:03;;;;;;;10.93;6.15;;;;;;;;;;5104292;28;20016;-47
2024/04/06 07:24:32;;;;;;;8.52;5.95;;;;;;;;;;5103653;28;20212;-49
2024/04/06 07:26:59;;;;;;;9.13;6.03;;;;;;;;;;5104115;28;20087;-45
2024/04/06 07:29:25;;;;;;;7.97;5.68;;;;;;;;;;5103696;28;20020;-49
2024/04/06 07:31:52;;;;;;;9.52;5.97;;;;;;;;;;5103942;28;20028;-53
2024/04/06 07:34:19;;;;;;;7.53;6.07;;;;;;;;;;5103716;28;20012;-44
2024/04/06 07:36:45;;;;;;;6.47;5.88;;;;;;;;;;5103606;28;20181;-44
2024/04/06 07:39:12;;;;;;;7.38;5.95;;;;;;;;;;5103591;28;20024;-47
2024/04/06 07:41:38;;;;;;;6.68;5.85;;;;;;;;;;5103880;28;20073;-45
2024/04/06 07:44:05;;;;;;;7.78;6.10;;;;;;;;;;5103838;28;20319;-45
2024/04/06 07:46:32;;;;;;;7.35;6.03;;;;;;;;;;5103642;28;20028;-45
2024/04/06 07:48:58;;;;;;;8.18;6.10;;;;;;;;;;5103569;28;20047;-52
2024/04/06 07:51:25;;;;;;;9.68;7.40;;;;;;;;;;5103789;28;20024;-52
2024/04/06 07:53:52;;;;;;;11.27;7.97;;;;;;;;;;5103400;28;20031;-45
2024/04/06 07:56:18;;;;;;;9.30;8.10;;;;;;;;;;5103732;28;20082;-45
2024/04/06 07:58:45;;;;;;;10.25;9.15;;;;;;;;;;5103734;28;20020;-41
2024/04/06 08:01:11;;;;;;;12.35;8.52;;;;;;;;;;5106620;28;20032;-46
2024/04/06 08:03:38;;;;;;;11.85;8.65;;;;;;;;;;5107101;28;20027;-48
2024/04/06 08:06:06;;;;;;;17.13;9.50;;;;;;;;;;5107224;28;20024;-44
2024/04/06 08:08:34;;;;;;;13.15;8.55;;;;;;;;;;5106917;28;20343;-42
2024/04/06 08:11:01;;;;;;;15.82;8.90;;;;;;;;;;5107128;28;20069;-45
2024/04/06 08:13:28;;;;;;;16.25;8.38;;;;;;;;;;5106960;28;20129;-43
2024/04/06 08:15:55;;;;;;;13.52;8.57;;;;;;;;;;5106830;28;20031;-42
2024/04/06 08:18:21;;;;;;;19.55;8.80;;;;;;;;;;5106904;28;20347;-43
2024/04/06 08:20:48;;;;;;;17.95;9.55;;;;;;;;;;5106922;28;20352;-41
2024/04/06 08:23:17;;;;;;;21.27;9.45;;;;;;;;;;5106676;28;20047;-45
2024/04/06 08:25:44;;;;;;;20.75;9.43;;;;;;;;;;5106720;28;20035;-44
2024/04/06 08:28:10;;;;;;;24.85;10.30;;;;;;;;;;5106710;28;20058;-41
2024/04/06 08:30:37;;;;;;;32.42;9.85;;;;;;;;;;5106364;28;20040;-41
2024/04/06 08:33:05;;;;;;;18.85;8.85;;;;;;;;;;5106657;28;20016;-45
2024/04/06 08:35:34;;;;;;;16.63;8.80;;;;;;;;;;5106503;28;20052;-49
2024/04/06 08:38:00;;;;;;;13.77;7.82;;;;;;;;;;5106339;28;20069;-48
2024/04/06 08:40:27;;;;;;;10.10;6.60;;;;;;;;;;5106447;28;20028;-42
2024/04/06 08:42:56;;;;;;;9.05;6.88;;;;;;;;;;5106469;28;20320;-42
2024/04/06 08:45:26;;;;;;;8.77;6.40;;;;;;;;;;5106163;28;20050;-42
2024/04/06 08:47:53;;;;;;;8.75;6.55;;;;;;;;;;5106319;28;20012;-53
2024/04/06 08:50:20;;;;;;;9.10;6.38;;;;;;;;;;5106251;28;20204;-47
2024/04/06 08:52:47;;;;;;;9.15;6.18;;;;;;;;;;5106066;28;20315;-52
2024/04/06 08:55:14;;;;;;;8.35;6.40;;;;;;;;;;5106070;28;20024;-41
2024/04/06 08:57:41;;;;;;;9.57;6.18;;;;;;;;;;5106569;28;20223;-44
2024/04/06 09:00:11;;;;;;;9.40;5.88;;;;;;;;;;5105906;28;20062;-44
2024/04/06 09:02:38;;;;;;;8.35;6.28;;;;;;;;;;5106008;28;20070;-50
2024/04/06 09:05:06;;;;;;;7.22;5.90;;;;;;;;;;5106202;28;20233;-42
2024/04/06 09:07:33;;;;;;;7.90;5.60;;;;;;;;;;5106240;28;20198;-41
2024/04/06 09:09:59;;;;;;;8.00;5.93;;;;;;;;;;5106113;28;20047;-42
2024/04/06 09:12:26;;;;;;;9.65;5.75;;;;;;;;;;5105422;28;20125;-45
2024/04/06 09:14:53;;;;;;;8.55;5.72;;;;;;;;;;5105527;28;20028;-42
2024/04/06 09:17:23;;;;;;;7.35;5.53;;;;;;;;;;5106108;28;20192;-41
2024/04/06 09:19:50;;;;;;;9.27;5.78;;;;;;;;;;5105570;28;20020;-41
2024/04/06 09:22:16;;;;;;;7.45;5.47;;;;;;;;;;5105871;28;20024;-42
2024/04/06 09:24:43;;;;;;;6.90;5.53;;;;;;;;;;5105727;28;20055;-41
2024/04/06 09:27:11;;;;;;;8.27;5.72;;;;;;;;;;5105919;28;20028;-49
2024/04/06 09:29:39;;;;;;;7.00;5.80;;;;;;;;;;5105171;28;20095;-45
2024/04/06 09:32:10;;;;;;;6.80;5.35;;;;;;;;;;5105786;28;20031;-42
2024/04/06 09:48:10;;;;;;;8.13;5.85;;;;;;;;;;5121717;27;20447;-39
2024/04/06 09:50:40;;;;;;;6.60;5.57;;;;;;;;;;5121821;28;20061;-39
2024/04/06 09:53:08;;;;;;;6.78;5.60;;;;;;;;;;5121711;28;20078;-46
2024/04/06 09:55:38;;;;;;;7.53;5.93;;;;;;;;;;5121425;28;20020;-46
2024/04/06 09:58:05;;;;;;;6.63;5.50;;;;;;;;;;5121612;28;20108;-39
2024/04/06 10:00:33;;;;;;;8.25;6.18;;;;;;;;;;5121488;28;20043;-40
2024/04/06 10:03:02;;;;;;;8.80;6.72;;;;;;;;;;5121477;28;20026;-45
2024/04/06 10:05:44;;;;;;;8.13;6.65;;;;;;;;;;5121441;28;20038;-41
2024/04/06 10:08:12;;;;;;;8.95;7.00;;;;;;;;;;5121260;28;20058;-43
2024/04/06 10:10:45;;;;;;;9.25;7.20;;;;;;;;;;5121338;28;20024;-41
2024/04/06 10:13:18;;;;;;;9.00;6.93;;;;;;;;;;5121264;28;20024;-41
2024/04/06 10:15:45;;;;;;;8.43;7.43;;;;;;;;;;5100873;28;20032;-40
2024/04/06 10:18:11;;;;;;;9.90;7.65;;;;;;;;;;5100746;28;20079;-38
2024/04/06 10:20:40;;;;;;;11.50;8.23;;;;;;;;;;5100924;28;20051;-37
2024/04/06 10:23:07;;;;;;;12.20;8.60;;;;;;;;;;5100562;28;20043;-38
2024/04/06 10:25:39;;;;;;;10.45;8.10;;;;;;;;;;5100605;28;20031;-42
2024/04/06 10:28:07;;;;;;;10.32;8.68;;;;;;;;;;5100359;28;20358;-41
2024/04/06 10:30:40;;;;;;;11.05;7.90;;;;;;;;;;5100594;28;20047;-48
2024/04/06 10:33:08;;;;;;;11.07;8.25;;;;;;;;;;5100485;28;20020;-44
2024/04/06 10:35:34;;;;;;;12.50;8.18;;;;;;;;;;5100181;28;20042;-41
2024/04/06 10:38:01;;;;;;;8.93;7.97;;;;;;;;;;5100409;28;20016;-39
2024/04/06 10:40:34;;;;;;;8.85;7.85;;;;;;;;;;5100354;28;20181;-40
2024/04/06 10:43:00;;;;;;;9.98;7.55;;;;;;;;;;5100252;28;20020;-41
2024/04/06 10:45:27;;;;;;;8.93;7.28;;;;;;;;;;5100287;28;20015;-43
2024/04/06 10:47:54;;;;;;;11.52;7.93;;;;;;;;;;5092876;28;20039;-42
2024/04/06 10:50:21;;;;;;;10.98;7.72;;;;;;;;;;5086553;28;20025;-39
2024/04/06 10:52:47;;;;;;;9.73;6.82;;;;;;;;;;5086586;28;20074;-41
2024/04/06 10:55:20;;;;;;;8.82;6.65;;;;;;;;;;5086416;28;20351;-50
2024/04/06 10:57:47;;;;;;;9.38;6.05;;;;;;;;;;5086701;28;20119;-45
2024/04/06 11:00:16;;;;;;;18.02;7.53;;;;;;;;;;5086294;28;20129;-43
2024/04/06 11:02:43;;;;;;;11.65;7.35;;;;;;;;;;5086271;28;20367;-43
2024/04/06 11:05:10;;;;;;;8.80;6.40;;;;;;;;;;5092261;28;20020;-39
2024/04/06 11:07:38;;;;;;;9.02;6.80;;;;;;;;;;5094148;28;20016;-46
2024/04/06 11:10:06;;;;;;;8.30;6.00;;;;;;;;;;5098657;28;20027;-42
2024/04/06 11:12:32;;;;;;;9.75;6.47;;;;;;;;;;5086598;28;20029;-40
2024/04/06 11:15:00;;;;;;;8.98;6.90;;;;;;;;;;5086512;28;20192;-46
2024/04/06 11:17:26;;;;;;;9.95;7.00;;;;;;;;;;5086286;28;20032;-41
2024/04/06 11:19:53;;;;;;;8.05;6.68;;;;;;;;;;5086214;28;20040;-48
2024/04/06 11:22:21;;;;;;;9.90;7.25;;;;;;;;;;5086436;28;20024;-48
2024/04/06 11:24:48;;;;;;;12.90;7.78;;;;;;;;;;5085823;28;20304;-46
2024/04/06 11:27:20;;;;;;;13.50;8.18;;;;;;;;;;5086286;28;20070;-45
2024/04/06 11:29:49;;;;;;;10.60;7.88;;;;;;;;;;5085940;28;20375;-48
2024/04/06 11:32:19;;;;;;;8.70;7.28;;;;;;;;;;5086168;28;20036;-54
2024/04/06 11:34:47;;;;;;;8.18;6.95;;;;;;;;;;5085952;28;20319;-41
2024/04/06 11:37:13;;;;;;;8.52;7.10;;;;;;;;;;5086032;28;20073;-40
2024/04/06 11:39:40;;;;;;;9.57;6.93;;;;;;;;;;5085498;28;20020;-44
2024/04/06 11:42:07;;;;;;;9.07;7.03;;;;;;;;;;5086097;28;20028;-44
2024/04/06 11:44:34;;;;;;;8.38;7.38;;;;;;;;;;5085537;28;20020;-41
2024/04/06 11:47:01;;;;;;;9.90;7.60;;;;;;;;;;5085421;28;20064;-47
2024/04/06 11:49:27;;;;;;;11.90;8.32;;;;;;;;;;5085513;28;20043;-42
2024/04/06 11:51:54;;;;;;;12.85;8.93;;;;;;;;;;5085835;28;20074;-50
2024/04/06 11:54:21;;;;;;;12.73;9.05;;;;;;;;;;5085267;28;20224;-47
2024/04/06 11:56:48;;;;;;;17.95;9.23;;;;;;;;;;5085522;28;20263;-41
2024/04/06 11:59:16;;;;;;;16.83;9.57;;;;;;;;;;5084272;28;20027;-40
2024/04/06 12:01:43;;;;;;;16.05;9.45;;;;;;;;;;5086359;28;20020;-45
2024/04/06 12:04:09;;;;;;;16.73;10.05;;;;;;;;;;5105347;28;20303;-46
2024/04/06 12:06:36;;;;;;;13.27;9.75;;;;;;;;;;5104923;28;20020;-46
2024/04/06 12:09:06;;;;;;;13.20;10.18;;;;;;;;;;5105282;28;20122;-44
2024/04/06 12:11:33;;;;;;;16.65;10.77;;;;;;;;;;5105582;28;20031;-44
2024/04/06 12:14:00;;;;;;;14.82;10.52;;;;;;;;;;5105337;28;20028;-41
2024/04/06 12:16:27;;;;;;;17.55;10.98;;;;;;;;;;5105251;28;20027;-47
2024/04/06 12:18:54;;;;;;;16.85;10.98;;;;;;;;;;5105135;28;20091;-48
2024/04/06 12:21:22;;;;;;;15.23;10.18;;;;;;;;;;5105278;28;20083;-43
2024/04/06 12:23:48;;;;;;;15.60;9.68;;;;;;;;;;5104867;28;20024;-50
2024/04/06 12:26:15;;;;;;;12.43;9.65;;;;;;;;;;5105284;28;20038;-45
2024/04/06 12:28:42;;;;;;;18.23;10.68;;;;;;;;;;5105081;28;20034;-48
2024/04/06 12:31:08;;;;;;;23.55;10.75;;;;;;;;;;5104966;28;20024;-48
2024/04/06 12:33:36;;;;;;;15.88;9.98;;;;;;;;;;5105011;28;20129;-43
2024/04/06 12:36:05;;;;;;;24.42;10.23;;;;;;;;;;5104839;28;20053;-41
2024/04/06 12:38:31;;;;;;;19.75;9.95;;;;;;;;;;5104484;28;20041;-44
2024/04/06 12:40:59;;;;;;;18.75;9.38;;;;;;;;;;5104975;28;20079;-47
2024/04/06 12:43:26;;;;;;;20.38;9.93;;;;;;;;;;5104683;28;20024;-44
2024/04/06 12:45:53;;;;;;;135.70;122.82;;;;;;;;;;5104442;28;20083;-41
2024/04/06 12:48:20;;;;;;;308.73;279.88;;;;;;;;;;5104669;28;20099;-43
2024/04/06 12:50:47;;;;;;;153.63;138.57;;;;;;;;;;5104724;28;20035;-43
2024/04/06 12:53:14;;;;;;;104.53;94.32;;;;;;;;;;5104575;28;20024;-46
2024/04/06 12:55:41;;;;;;;84.32;75.93;;;;;;;;;;5104832;28;20040;-47
2024/04/06 12:58:07;;;;;;;57.85;51.78;;;;;;;;;;5104692;28;20177;-48
2024/04/06 13:00:34;;;;;;;50.47;45.05;;;;;;;;;;5101371;28;20232;-44
2024/04/06 13:03:00;;;;;;;38.22;34.33;;;;;;;;;;5104498;28;20292;-42
2024/04/06 13:05:27;;;;;;;31.55;28.35;;;;;;;;;;5104332;28;20305;-41
2024/04/06 13:07:54;;;;;;;28.35;24.02;;;;;;;;;;5104319;28;20019;-48
2024/04/06 13:10:20;;;;;;;23.88;20.98;;;;;;;;;;5103957;28;20020;-44
2024/04/06 13:12:47;;;;;;;21.92;17.98;;;;;;;;;;5104318;28;20051;-41
2024/04/06 13:15:14;;;;;;;20.85;17.95;;;;;;;;;;5102640;28;20036;-53
2024/04/06 13:17:42;;;;;;;18.88;15.57;;;;;;;;;;5098108;28;20031;-50
2024/04/06 13:20:09;;;;;;;18.25;13.65;;;;;;;;;;5090854;28;20019;-48
2024/04/06 13:22:39;;;;;;;15.05;12.60;;;;;;;;;;5104172;28;20027;-49
2024/04/06 13:25:09;;;;;;;16.25;13.07;;;;;;;;;;5104200;28;20027;-49
2024/04/06 13:27:36;;;;;;;14.48;11.93;;;;;;;;;;5103944;28;20035;-50
2024/04/06 13:30:05;;;;;;;13.38;11.98;;;;;;;;;;5101734;28;20035;-51
2024/04/06 13:32:31;;;;;;;15.52;11.50;;;;;;;;;;5103973;28;20081;-51
2024/04/06 13:34:58;;;;;;;15.23;12.07;;;;;;;;;;5104199;28;20023;-48
2024/04/06 13:37:24;;;;;;;14.65;11.52;;;;;;;;;;5104297;28;20030;-45
2024/04/06 13:39:55;;;;;;;16.45;11.85;;;;;;;;;;5104148;28;20028;-49
2024/04/06 13:42:22;;;;;;;15.30;11.18;;;;;;;;;;5104454;28;20020;-51
2024/04/06 13:44:48;;;;;;;11.60;10.27;;;;;;;;;;5103830;28;20024;-45
2024/04/06 13:47:15;;;;;;;13.50;11.50;;;;;;;;;;5103775;28;20052;-56
2024/04/06 13:49:43;;;;;;;15.02;11.20;;;;;;;;;;5103988;28;20035;-51
2024/04/06 13:52:09;;;;;;;15.82;11.00;;;;;;;;;;5104228;28;20254;-47
2024/04/06 13:54:37;;;;;;;16.45;10.68;;;;;;;;;;5103960;28;20284;-47
2024/04/06 13:57:04;;;;;;;13.68;10.88;;;;;;;;;;5104192;28;20043;-48
2024/04/06 13:59:31;;;;;;;14.30;10.70;;;;;;;;;;5103819;28;20012;-51
2024/04/06 14:01:58;;;;;;;13.73;10.43;;;;;;;;;;5104128;28;20020;-51
2024/04/06 14:04:24;;;;;;;12.40;10.13;;;;;;;;;;5103828;28;20020;-46
2024/04/06 14:06:51;;;;;;;13.80;10.48;;;;;;;;;;5104208;28;20094;-44
2024/04/06 14:09:25;;;;;;;15.13;10.00;;;;;;;;;;5103691;28;20246;-48
2024/04/06 14:11:55;;;;;;;12.93;10.07;;;;;;;;;;5091864;28;20316;-51
2024/04/06 14:14:22;;;;;;;13.35;9.75;;;;;;;;;;5098148;28;20047;-48
2024/04/06 14:16:53;;;;;;;12.88;9.85;;;;;;;;;;5094484;28;20029;-51
2024/04/06 14:19:22;;;;;;;13.27;9.30;;;;;;;;;;5083434;28;20013;-50
2024/04/06 14:21:53;;;;;;;15.25;10.55;;;;;;;;;;5083549;28;20118;-50
2024/04/06 14:24:20;;;;;;;13.23;8.93;;;;;;;;;;5103872;28;20051;-48
2024/04/06 14:26:48;;;;;;;12.85;10.52;;;;;;;;;;5107683;28;20219;-51
2024/04/06 14:29:15;;;;;;;12.90;10.20;;;;;;;;;;5100059;28;20027;-52
2024/04/06 14:31:42;;;;;;;13.18;10.50;;;;;;;;;;5093871;28;20054;-41
2024/04/06 14:34:08;;;;;;;17.35;11.48;;;;;;;;;;5107610;28;20024;-52
2024/04/06 14:36:35;;;;;;;12.98;10.52;;;;;;;;;;5107276;28;20020;-48
2024/04/06 14:39:02;;;;;;;17.65;11.55;;;;;;;;;;5107485;28;20016;-52
2024/04/06 14:41:28;;;;;;;15.13;11.30;;;;;;;;;;5107336;28;20024;-53